Time;durP1;ratioP1;P1;durP2;ratioP2;P2;SDS_P1;SDS_P2;PMS_P1;PMS_P2;Temp;Humidity;BMP_temperature;BMP_pressure;BME280_temperature;BME280_humidity;BME280_pressure;Samples;Min_cycle;Max_cycle;Signal;HPM_P1;HPM_P2
2022/04/18 00:00:33;;;;;;;26.65;17.20;;;;;;;1.92;100.00;102433.66;4881189;29;20037;-78
2022/04/18 00:03:03;;;;;;;24.27;15.93;;;;;;;1.88;100.00;102439.19;4882422;29;20032;-78
2022/04/18 00:05:29;;;;;;;28.15;17.50;;;;;;;1.81;100.00;102440.53;4896913;29;20048;-78
2022/04/18 00:07:55;;;;;;;27.08;17.02;;;;;;;1.67;100.00;102416.72;4867702;29;20033;-78
2022/04/18 00:10:20;;;;;;;33.67;20.75;;;;;;;1.78;100.00;102440.75;4858716;29;20033;-78
2022/04/18 00:12:46;;;;;;;26.67;17.65;;;;;;;1.71;100.00;102415.56;4881771;29;20035;-77
2022/04/18 00:15:11;;;;;;;28.27;17.55;;;;;;;1.71;100.00;102418.22;4880743;29;20110;-78
2022/04/18 00:17:36;;;;;;;31.98;20.33;;;;;;;1.82;100.00;102429.00;4882491;29;20033;-77
2022/04/18 00:20:02;;;;;;;30.27;20.73;;;;;;;1.81;100.00;102431.75;4881632;29;20035;-78
2022/04/18 00:22:28;;;;;;;32.22;20.10;;;;;;;1.79;100.00;102433.66;4881572;29;20123;-78
2022/04/18 00:24:53;;;;;;;34.97;21.23;;;;;;;1.61;100.00;102403.88;4880085;29;20124;-77
2022/04/18 00:27:18;;;;;;;29.15;16.83;;;;;;;1.58;100.00;102404.06;4880728;29;20251;-78
2022/04/18 00:29:44;;;;;;;27.90;17.45;;;;;;;1.59;100.00;102414.59;4880187;29;20069;-78
2022/04/18 00:32:09;;;;;;;27.08;17.58;;;;;;;1.63;100.00;102434.66;4882362;29;20352;-77
2022/04/18 00:34:34;;;;;;;23.50;15.63;;;;;;;1.50;100.00;102411.69;4881245;29;20371;-78
2022/04/18 00:37:00;;;;;;;27.88;17.98;;;;;;;1.56;100.00;102424.56;4882441;29;20037;-78
2022/04/18 00:39:25;;;;;;;25.65;16.30;;;;;;;1.55;100.00;102429.00;4882929;29;20033;-78
2022/04/18 00:41:50;;;;;;;28.40;18.23;;;;;;;1.40;100.00;102406.13;4879604;29;20029;-78
2022/04/18 00:44:16;;;;;;;20.95;13.48;;;;;;;1.52;100.00;102428.34;4881277;29;20033;-78
2022/04/18 00:46:41;;;;;;;20.80;13.88;;;;;;;1.46;100.00;102421.66;4881006;29;20108;-77
2022/04/18 00:49:06;;;;;;;21.27;13.88;;;;;;;1.41;100.00;102423.75;4880567;29;20079;-78
2022/04/18 00:51:32;;;;;;;21.05;14.80;;;;;;;1.39;100.00;102428.28;4880249;29;20061;-78
2022/04/18 00:53:59;;;;;;;21.38;13.88;;;;;;;1.36;100.00;102426.72;4879928;29;20116;-77
2022/04/18 00:56:26;;;;;;;21.15;13.40;;;;;;;1.33;100.00;102424.25;4880179;29;20032;-78
2022/04/18 00:58:51;;;;;;;20.10;12.65;;;;;;;1.31;100.00;102423.50;4881041;29;20032;-78
2022/04/18 01:01:18;;;;;;;24.33;15.25;;;;;;;1.25;100.00;102423.88;4880581;29;20097;-78
2022/04/18 01:03:44;;;;;;;24.45;16.08;;;;;;;1.27;100.00;102426.44;4895157;29;20581;-78
2022/04/18 01:06:10;;;;;;;22.58;15.57;;;;;;;1.25;100.00;102420.38;4880269;29;20059;-78
2022/04/18 01:08:36;;;;;;;31.63;19.35;;;;;;;1.08;100.00;102397.59;4880742;29;20025;-78
2022/04/18 01:11:02;;;;;;;23.38;16.13;;;;;;;1.24;100.00;102424.00;4880508;29;20029;-78
2022/04/18 01:13:28;;;;;;;28.48;17.20;;;;;;;1.20;100.00;102425.16;4880142;29;20029;-78
2022/04/18 01:15:55;;;;;;;28.08;17.65;;;;;;;1.14;100.00;102424.56;4878429;29;20033;-78
2022/04/18 01:18:21;;;;;;;28.48;17.02;;;;;;;1.15;100.00;102420.13;4878364;29;20681;-78
2022/04/18 01:20:47;;;;;;;33.38;20.50;;;;;;;1.12;100.00;102407.91;4881496;29;20044;-78
2022/04/18 01:23:13;;;;;;;33.83;19.98;;;;;;;1.21;100.00;102416.22;4881068;29;20036;-78
2022/04/18 01:31:06;;;;;;;41.42;25.65;;;;;;;1.20;100.00;102393.34;4880722;29;20474;-78
2022/04/18 01:33:32;;;;;;;41.13;24.40;;;;;;;1.38;100.00;102418.63;4880826;29;20040;-78
2022/04/18 01:35:57;;;;;;;32.50;20.98;;;;;;;1.41;100.00;102421.09;4880217;29;20434;-77
2022/04/18 01:38:23;;;;;;;26.92;17.63;;;;;;;1.12;100.00;102386.69;4879882;29;20032;-78
2022/04/18 01:40:49;;;;;;;31.48;20.42;;;;;;;1.11;100.00;102392.97;4879567;29;20359;-78
2022/04/18 01:43:14;;;;;;;33.10;20.55;;;;;;;1.24;100.00;102414.22;4897995;29;20033;-78
2022/04/18 01:45:40;;;;;;;37.83;22.20;;;;;;;1.04;100.00;102378.41;4894850;29;20066;-78
2022/04/18 01:48:05;;;;;;;38.05;21.80;;;;;;;1.23;100.00;102409.03;4895698;29;20111;-78
2022/04/18 01:50:31;;;;;;;39.40;23.55;;;;;;;1.23;100.00;102403.75;4901960;29;20142;-78
2022/04/18 01:52:56;;;;;;;40.85;23.75;;;;;;;1.24;100.00;102403.63;4884055;29;20045;-78
2022/04/18 01:55:21;;;;;;;46.30;26.30;;;;;;;1.15;100.00;102388.31;4881259;29;20466;-78
2022/04/18 01:57:47;;;;;;;40.20;24.42;;;;;;;1.29;100.00;102406.84;4879501;29;20116;-78
2022/04/18 02:00:12;;;;;;;43.92;25.13;;;;;;;1.29;100.00;102414.81;4880223;29;20033;-78
2022/04/18 02:02:38;;;;;;;47.72;27.17;;;;;;;1.31;100.00;102412.03;4895678;29;20092;-77
2022/04/18 02:05:07;;;;;;;48.55;28.25;;;;;;;1.30;100.00;102408.53;4898337;29;20063;-78
2022/04/18 02:07:32;;;;;;;49.92;28.15;;;;;;;1.35;100.00;102417.03;4899451;29;20040;-78
2022/04/18 02:09:58;;;;;;;45.67;27.13;;;;;;;1.35;100.00;102413.53;4895951;29;20029;-78
2022/04/18 02:12:23;;;;;;;41.72;25.88;;;;;;;1.20;100.00;102380.91;4880171;29;20436;-78
2022/04/18 02:14:49;;;;;;;41.63;25.10;;;;;;;1.29;100.00;102404.19;4863570;29;20124;-78
2022/04/18 02:17:14;;;;;;;40.30;24.02;;;;;;;1.26;100.00;102403.50;4878710;29;20479;-78
2022/04/18 02:19:39;;;;;;;37.72;22.48;;;;;;;1.16;100.00;102390.03;4879293;29;20412;-77
2022/04/18 02:22:05;;;;;;;33.63;20.75;;;;;;;1.05;100.00;102387.19;4879418;29;20349;-78
2022/04/18 02:24:31;;;;;;;29.80;18.00;;;;;;;1.03;100.00;102394.41;4881006;29;20544;-78
2022/04/18 02:26:57;;;;;;;30.08;18.13;;;;;;;0.95;100.00;102394.88;4878992;29;20069;-78
2022/04/18 02:29:23;;;;;;;28.80;18.25;;;;;;;0.92;100.00;102398.56;4884885;29;20128;-78
2022/04/18 02:34:32;;;;;;;24.35;16.30;;;;;;;0.87;100.00;102391.88;4883388;29;20065;-78
2022/04/18 02:36:57;;;;;;;32.35;20.63;;;;;;;0.69;100.00;102367.38;4878132;29;20045;-78
2022/04/18 02:39:23;;;;;;;26.27;16.08;;;;;;;0.67;100.00;102362.19;4879257;29;20104;-78
2022/04/18 02:41:48;;;;;;;26.60;16.02;;;;;;;0.65;100.00;102371.19;4878207;29;20029;-78
2022/04/18 02:44:13;;;;;;;25.63;16.45;;;;;;;0.74;100.00;102390.94;4879191;29;20041;-78
2022/04/18 02:46:39;;;;;;;28.17;17.63;;;;;;;0.63;100.00;102379.22;4879683;29;20089;-77
2022/04/18 02:49:04;;;;;;;31.23;18.67;;;;;;;0.60;100.00;102379.44;4881667;29;20040;-78
2022/04/18 02:51:29;;;;;;;30.05;17.63;;;;;;;0.63;100.00;102381.88;4883590;29;20132;-78
2022/04/18 02:53:55;;;;;;;30.75;19.17;;;;;;;0.59;100.00;102380.34;4882917;29;20061;-78
2022/04/18 02:56:21;;;;;;;30.67;18.75;;;;;;;0.59;100.00;102379.50;4883338;29;20653;-77
2022/04/18 02:58:47;;;;;;;26.92;17.33;;;;;;;0.58;100.00;102378.66;4886309;29;20088;-78
2022/04/18 03:01:12;;;;;;;32.70;18.65;;;;;;;0.53;100.00;102362.22;4875395;29;20456;-78
2022/04/18 03:03:37;;;;;;;30.90;18.67;;;;;;;0.54;100.00;102378.94;4864229;29;20037;-78
2022/04/18 03:06:05;;;;;;;30.10;18.42;;;;;;;0.13;100.00;102310.84;4870602;29;20048;-78
2022/04/18 03:08:30;;;;;;;27.67;16.70;;;;;;;0.49;100.00;102376.56;4885156;29;20043;-78
2022/04/18 03:11:08;;;;;;;33.67;17.58;;;;;;;0.47;100.00;102366.09;4882587;29;20119;-78
2022/04/18 03:13:36;;;;;;;28.10;16.20;;;;;;;0.38;100.00;102363.16;4884356;29;20060;-78
2022/04/18 03:16:03;;;;;;;30.05;16.27;;;;;;;0.37;100.00;102372.91;4898644;29;20025;-78
2022/04/18 03:18:30;;;;;;;27.77;16.98;;;;;;;0.19;100.00;102344.88;4884699;29;20064;-77
2022/04/18 03:20:57;;;;;;;27.33;16.65;;;;;;;-0.08;100.00;102308.56;4883111;29;20036;-78
2022/04/18 03:23:22;;;;;;;26.92;16.38;;;;;;;0.29;100.00;102375.16;4882643;29;20121;-77
2022/04/18 03:25:47;;;;;;;26.40;15.98;;;;;;;0.23;100.00;102364.94;4877366;29;20104;-78
2022/04/18 03:28:13;;;;;;;26.25;17.45;;;;;;;0.26;100.00;102364.75;4863683;29;20112;-78
2022/04/18 03:30:39;;;;;;;27.20;17.17;;;;;;;0.34;100.00;102364.28;4865326;29;20029;-78
2022/04/18 03:33:05;;;;;;;28.13;15.75;;;;;;;0.33;100.00;102366.09;4862593;29;20100;-77
2022/04/18 03:35:30;;;;;;;25.60;16.23;;;;;;;0.18;100.00;102341.41;4877108;29;20041;-77
2022/04/18 03:40:43;;;;;;;25.33;15.80;;;;;;;0.19;100.00;102358.97;4881543;29;20120;-78
2022/04/18 03:43:09;;;;;;;27.45;15.38;;;;;;;0.09;100.00;102344.59;4883472;29;20061;-77
2022/04/18 03:45:34;;;;;;;26.73;15.95;;;;;;;0.13;100.00;102354.06;4881271;29;20040;-78
2022/04/18 03:48:00;;;;;;;27.10;14.88;;;;;;;0.01;100.00;102336.28;4881825;29;20466;-78
2022/04/18 03:50:25;;;;;;;27.50;15.68;;;;;;;0.09;100.00;102356.97;4882520;29;20133;-78
2022/04/18 03:52:51;;;;;;;28.33;15.55;;;;;;;0.06;100.00;102355.38;4879870;29;20024;-78
2022/04/18 03:55:16;;;;;;;25.30;15.20;;;;;;;0.14;100.00;102354.94;4881745;29;20053;-78
2022/04/18 03:57:42;;;;;;;27.50;15.00;;;;;;;0.07;100.00;102335.06;4881817;29;20060;-77
2022/04/18 04:00:09;;;;;;;26.48;15.40;;;;;;;0.12;100.00;102341.75;4877642;29;20160;-78
2022/04/18 04:02:34;;;;;;;29.80;15.60;;;;;;;0.27;100.00;102357.69;4877969;29;20413;-77
2022/04/18 04:05:01;;;;;;;27.05;15.32;;;;;;;0.28;100.00;102348.78;4875713;29;20033;-78
2022/04/18 04:07:26;;;;;;;26.98;14.82;;;;;;;0.16;100.00;102324.75;4899960;29;20115;-77
2022/04/18 04:09:53;;;;;;;24.48;14.73;;;;;;;0.34;100.00;102346.59;4886609;29;20068;-78
2022/04/18 04:12:26;;;;;;;24.98;14.90;;;;;;;0.38;100.00;102339.31;4881966;29;20535;-77
2022/04/18 04:14:53;;;;;;;28.15;15.50;;;;;;;0.75;100.00;102340.50;4880163;29;20053;-77
2022/04/18 04:17:18;;;;;;;26.58;15.68;;;;;;;1.48;100.00;102347.28;4895228;29;20080;-78
2022/04/18 04:19:44;;;;;;;26.20;15.65;;;;;;;2.19;100.00;102336.22;4896090;29;20124;-78
2022/04/18 04:22:10;;;;;;;26.00;15.35;;;;;;;2.78;100.00;102347.06;4881052;29;20131;-78
2022/04/18 04:24:35;;;;;;;22.75;14.10;;;;;;;3.14;100.00;102332.03;4881701;29;20048;-78
2022/04/18 04:27:00;;;;;;;22.50;13.52;;;;;;;3.50;100.00;102331.09;4881527;29;20035;-78
2022/04/18 04:29:26;;;;;;;19.88;12.88;;;;;;;3.87;100.00;102332.78;4864337;29;20029;-78
2022/04/18 04:31:51;;;;;;;20.80;13.23;;;;;;;4.11;100.00;102314.09;4880444;29;20443;-78
2022/04/18 04:34:16;;;;;;;22.30;12.70;;;;;;;4.51;100.00;102333.09;4880427;29;20052;-78
2022/04/18 04:36:42;;;;;;;18.23;12.23;;;;;;;4.77;100.00;102324.81;4881155;29;20030;-78
2022/04/18 04:39:08;;;;;;;19.25;12.40;;;;;;;5.05;100.00;102326.94;4881098;29;20025;-78
2022/04/18 04:41:35;;;;;;;17.73;12.02;;;;;;;5.21;100.00;102312.34;4881244;29;20056;-77
2022/04/18 04:44:01;;;;;;;19.45;12.30;;;;;;;5.31;100.00;102322.13;4895351;29;20025;-78
2022/04/18 04:46:27;;;;;;;19.35;12.18;;;;;;;5.47;100.00;102331.53;4879937;29;20048;-78
2022/04/18 04:48:53;;;;;;;19.20;11.90;;;;;;;5.88;100.00;102325.34;4879927;29;20036;-78
2022/04/18 04:51:18;;;;;;;17.48;11.30;;;;;;;6.33;100.00;102319.72;4881158;29;20392;-78
2022/04/18 04:53:44;;;;;;;15.38;10.63;;;;;;;6.50;100.00;102321.75;4895827;29;20055;-78
2022/04/18 04:56:10;;;;;;;18.15;11.00;;;;;;;6.74;100.00;102315.22;4880108;29;20064;-78
2022/04/18 04:58:35;;;;;;;13.82;10.35;;;;;;;6.90;100.00;102317.38;4879217;29;20076;-78
2022/04/18 05:01:01;;;;;;;13.77;10.00;;;;;;;7.18;100.00;102321.06;4880346;29;20028;-78
2022/04/18 05:03:26;;;;;;;16.70;10.43;;;;;;;7.39;100.00;102321.78;4880451;29;20440;-78
2022/04/18 05:05:53;;;;;;;15.07;10.48;;;;;;;7.42;100.00;102312.63;4879376;29;20044;-78
2022/04/18 05:08:18;;;;;;;14.85;9.98;;;;;;;7.69;100.00;102317.25;4880139;29;20055;-78
2022/04/18 05:10:44;;;;;;;14.43;10.10;;;;;;;7.98;100.00;102307.34;4879673;29;20507;-78
2022/04/18 05:13:09;;;;;;;14.73;10.05;;;;;;;8.15;100.00;102302.19;4879801;29;20033;-78
2022/04/18 05:15:34;;;;;;;16.98;10.50;;;;;;;8.39;100.00;102270.38;4881763;29;20036;-77
2022/04/18 05:18:00;;;;;;;13.60;9.30;;;;;;;8.81;100.00;102299.38;4896013;29;20455;-78
2022/04/18 05:20:25;;;;;;;13.43;9.45;;;;;;;8.92;99.60;102280.34;4883320;29;20037;-78
2022/04/18 05:22:50;;;;;;;14.02;9.52;;;;;;;9.21;97.85;102292.72;4879711;29;20036;-78
2022/04/18 05:25:16;;;;;;;13.00;9.38;;;;;;;9.24;96.98;102270.94;4878369;29;20135;-79
2022/04/18 05:27:42;;;;;;;12.70;9.00;;;;;;;8.53;100.00;102298.53;4878272;29;20025;-78
2022/04/18 05:30:08;;;;;;;12.45;9.32;;;;;;;6.87;100.00;102285.53;4879850;29;20064;-78
2022/04/18 05:32:33;;;;;;;12.45;9.00;;;;;;;5.80;100.00;102285.13;4879235;29;20462;-78
2022/04/18 05:34:59;;;;;;;12.63;9.00;;;;;;;5.47;100.00;102299.50;4877881;29;20164;-78
2022/04/18 05:37:24;;;;;;;12.73;8.80;;;;;;;5.28;100.00;102300.19;4878808;29;20662;-78
2022/04/18 05:39:49;;;;;;;11.57;8.45;;;;;;;5.25;100.00;102295.09;4875472;29;20052;-79
2022/04/18 05:42:15;;;;;;;11.15;8.35;;;;;;;5.23;100.00;102295.25;4868673;29;20052;-78
2022/04/18 05:44:40;;;;;;;12.93;8.52;;;;;;;5.25;100.00;102290.59;4860316;29;20524;-77
2022/04/18 05:47:07;;;;;;;13.68;8.93;;;;;;;5.16;100.00;102286.03;4877985;29;20526;-78
2022/04/18 05:49:32;;;;;;;12.20;8.23;;;;;;;5.07;100.00;102271.66;4880432;29;20108;-78
2022/04/18 05:51:58;;;;;;;10.32;7.50;;;;;;;5.29;100.00;102273.34;4893521;29;20167;-78
2022/04/18 05:54:23;;;;;;;12.15;7.90;;;;;;;5.44;100.00;102289.91;4879212;29;20041;-78
2022/04/18 05:56:48;;;;;;;11.20;7.72;;;;;;;5.65;100.00;102293.44;4879982;29;20037;-78
2022/04/18 05:59:14;;;;;;;12.02;8.38;;;;;;;5.79;100.00;102283.41;4875031;29;20110;-78
2022/04/18 06:01:39;;;;;;;11.68;8.02;;;;;;;5.80;100.00;102237.88;4879370;29;20048;-78
2022/04/18 06:04:04;;;;;;;11.25;7.60;;;;;;;6.37;100.00;102294.41;4894121;29;20037;-78
2022/04/18 06:06:31;;;;;;;13.07;7.38;;;;;;;6.50;100.00;102292.34;4878684;29;20032;-78
2022/04/18 06:08:57;;;;;;;10.40;6.88;;;;;;;6.48;100.00;102286.28;4879175;29;20150;-78
2022/04/18 06:11:22;;;;;;;11.68;7.65;;;;;;;6.63;100.00;102284.09;4877907;29;20128;-78
2022/04/18 06:13:47;;;;;;;11.68;7.15;;;;;;;6.78;100.00;102290.72;4879719;29;20371;-78
2022/04/18 06:16:13;;;;;;;10.80;7.63;;;;;;;6.99;100.00;102287.94;4878730;29;20037;-79
2022/04/18 06:18:38;;;;;;;12.13;7.82;;;;;;;7.17;100.00;102285.41;4879689;29;20080;-78
2022/04/18 06:21:04;;;;;;;11.90;7.95;;;;;;;7.33;100.00;102276.81;4879263;29;20063;-78
2022/04/18 06:23:29;;;;;;;12.65;8.18;;;;;;;7.58;100.00;102282.56;4897137;29;20374;-78
2022/04/18 06:25:54;;;;;;;11.52;7.40;;;;;;;7.86;100.00;102288.88;4886465;29;20105;-80
2022/04/18 06:28:20;;;;;;;12.45;7.88;;;;;;;8.05;100.00;102283.47;4885699;29;20029;-79
2022/04/18 06:30:45;;;;;;;10.93;7.68;;;;;;;8.22;100.00;102276.50;4874879;29;20045;-79
2022/04/18 06:33:12;;;;;;;10.27;7.82;;;;;;;8.40;100.00;102273.88;4888204;29;20125;-79
2022/04/18 06:35:38;;;;;;;11.63;8.02;;;;;;;8.39;100.00;102281.09;4885412;29;20024;-79
2022/04/18 06:38:04;;;;;;;10.30;7.53;;;;;;;8.62;100.00;102267.28;4882651;29;20519;-79
2022/04/18 06:40:30;;;;;;;11.55;7.65;;;;;;;8.76;100.00;102272.13;4885423;29;20044;-79
2022/04/18 06:42:55;;;;;;;11.55;7.97;;;;;;;8.82;100.00;102270.69;4904701;29;20029;-78
2022/04/18 06:45:21;;;;;;;12.75;7.80;;;;;;;8.96;100.00;102263.94;4902730;29;20124;-78
2022/04/18 06:47:46;;;;;;;11.27;7.70;;;;;;;8.90;100.00;102271.59;4884682;29;20025;-78
2022/04/18 06:50:12;;;;;;;12.57;7.13;;;;;;;8.81;100.00;102266.31;4885177;29;20045;-78
2022/04/18 06:52:46;;;;;;;10.25;7.15;;;;;;;9.11;100.00;102267.78;4899921;29;20037;-79
2022/04/18 06:55:11;;;;;;;10.80;7.18;;;;;;;9.33;100.00;102251.19;4885680;29;20044;-78
2022/04/18 06:57:36;;;;;;;10.20;7.15;;;;;;;9.49;100.00;102257.69;4881441;29;20029;-78
2022/04/18 07:00:04;;;;;;;11.25;7.38;;;;;;;9.38;100.00;102248.03;4884441;29;20351;-79
2022/04/18 07:02:29;;;;;;;10.02;6.88;;;;;;;9.37;100.00;102267.81;4881455;29;20141;-79
2022/04/18 07:04:55;;;;;;;9.48;6.78;;;;;;;9.51;100.00;102263.75;4884128;29;20538;-78
2022/04/18 07:07:20;;;;;;;11.27;7.47;;;;;;;9.54;100.00;102263.47;4881632;29;20341;-79
2022/04/18 07:09:46;;;;;;;10.18;6.88;;;;;;;9.89;100.00;102262.50;4884348;29;20451;-79
2022/04/18 07:12:11;;;;;;;13.63;7.32;;;;;;;9.91;100.00;102273.09;4895979;29;20040;-78
2022/04/18 07:14:37;;;;;;;9.50;6.55;;;;;;;9.99;100.00;102265.06;4888306;29;20067;-78
2022/04/18 07:17:03;;;;;;;10.73;6.78;;;;;;;10.24;100.00;102261.53;4886067;29;20060;-79
2022/04/18 07:19:28;;;;;;;8.70;6.55;;;;;;;10.09;100.00;102269.34;4892097;29;20120;-77
2022/04/18 07:21:55;;;;;;;13.88;6.70;;;;;;;10.41;100.00;102267.84;4895013;29;20148;-79
2022/04/18 07:24:20;;;;;;;10.05;6.47;;;;;;;10.38;100.00;102261.94;4888934;29;20077;-79
2022/04/18 07:26:46;;;;;;;7.88;6.30;;;;;;;10.35;100.00;102250.50;4889091;29;20037;-79
2022/04/18 07:29:12;;;;;;;8.52;6.32;;;;;;;10.59;99.59;102273.09;4892169;29;20032;-80
2022/04/18 07:31:37;;;;;;;9.90;6.75;;;;;;;10.70;95.95;102263.91;4892961;29;20051;-80
2022/04/18 07:34:02;;;;;;;8.35;6.15;;;;;;;10.86;94.21;102250.50;4872547;29;20051;-78
2022/04/18 07:36:28;;;;;;;10.55;6.22;;;;;;;11.09;90.90;102241.75;4893707;29;20037;-81
2022/04/18 07:38:53;;;;;;;11.30;6.18;;;;;;;11.13;88.63;102260.13;4910843;29;20056;-80
2022/04/18 07:41:24;;;;;;;8.20;5.95;;;;;;;11.15;85.36;102257.25;4900317;29;20043;-83
2022/04/18 07:43:51;;;;;;;8.60;6.20;;;;;;;11.46;67.96;102266.34;4913712;29;20097;-79
2022/04/18 07:46:17;;;;;;;8.00;6.30;;;;;;;11.79;67.70;102257.38;4912478;29;20038;-81
2022/04/18 07:48:44;;;;;;;7.82;5.43;;;;;;;11.88;67.42;102253.69;4908804;29;20048;-80
2022/04/18 07:53:54;;;;;;;8.40;5.82;;;;;;;11.92;65.56;102245.09;4907182;29;20106;-82
2022/04/18 07:56:22;;;;;;;8.20;6.13;;;;;;;12.15;64.64;102250.56;4904045;29;20013;-81
2022/04/18 07:58:47;;;;;;;8.40;6.15;;;;;;;11.96;63.87;102218.59;4902604;29;20029;-81
2022/04/18 08:01:13;;;;;;;9.32;7.47;;;;;;;11.87;63.01;102230.41;4917564;29;20033;-82
2022/04/18 08:06:14;;;;;;;11.30;6.60;;;;;;;11.15;63.34;102101.81;5363802;23;20068;-80
2022/04/18 08:08:39;;;;;;;9.38;6.38;;;;;;;11.38;63.32;102118.09;4906524;29;20351;-79
2022/04/18 08:11:05;;;;;;;11.52;6.82;;;;;;;11.85;63.37;102197.38;4901413;29;20398;-80
2022/04/18 08:13:31;;;;;;;9.88;6.47;;;;;;;12.28;64.73;102232.97;4882703;29;20107;-80
2022/04/18 08:15:56;;;;;;;9.40;5.70;;;;;;;12.27;65.95;102244.78;4900109;29;20463;-79
2022/04/18 08:18:22;;;;;;;10.40;5.90;;;;;;;11.91;69.16;102239.84;4903562;29;20103;-80
2022/04/18 08:20:48;;;;;;;7.28;5.65;;;;;;;11.65;71.14;102227.38;4925930;29;20040;-80
2022/04/18 08:23:14;;;;;;;8.82;5.97;;;;;;;11.52;71.79;102225.25;4902348;29;20092;-80
2022/04/18 08:25:40;;;;;;;8.60;5.68;;;;;;;11.50;72.34;102237.19;4897821;29;20037;-81
2022/04/18 08:28:05;;;;;;;7.68;5.53;;;;;;;11.40;71.82;102223.06;4903560;29;20021;-81
2022/04/18 08:30:31;;;;;;;7.15;5.13;;;;;;;11.45;70.52;102244.94;4903537;29;20028;-81
2022/04/18 08:32:56;;;;;;;10.68;6.13;;;;;;;11.45;71.35;102234.16;4898568;29;20039;-80
2022/04/18 08:35:21;;;;;;;9.95;5.80;;;;;;;11.52;71.12;102229.75;4883982;29;20032;-80
2022/04/18 08:37:48;;;;;;;8.75;5.72;;;;;;;11.51;70.47;102237.00;4901790;29;20028;-80
2022/04/18 08:40:14;;;;;;;9.50;5.80;;;;;;;11.55;70.40;102237.50;4898485;29;20051;-80
2022/04/18 08:42:41;;;;;;;7.85;5.80;;;;;;;11.63;68.95;102237.53;4916904;29;20032;-79
2022/04/18 08:45:10;;;;;;;7.65;5.70;;;;;;;11.57;67.28;102223.88;4917695;29;20123;-79
2022/04/18 08:53:09;;;;;;;9.45;5.60;;;;;;;11.77;66.52;102226.03;4897990;29;20083;-80
2022/04/18 08:55:34;;;;;;;11.88;6.38;;;;;;;11.84;66.39;102233.44;4902072;29;20040;-80
2022/04/18 08:57:59;;;;;;;9.93;6.55;;;;;;;11.94;65.39;102228.72;4883435;29;20025;-80
2022/04/18 09:00:27;;;;;;;9.88;7.43;;;;;;;12.06;64.19;102231.88;4900117;29;20029;-80
2022/04/18 09:02:52;;;;;;;10.07;7.07;;;;;;;12.05;63.27;102217.53;4882869;29;20484;-80
2022/04/18 09:05:18;;;;;;;9.75;7.25;;;;;;;12.12;62.06;102218.53;4897938;29;20061;-80
2022/04/18 09:07:55;;;;;;;11.35;7.55;;;;;;;12.16;61.45;102209.06;4883917;29;20025;-80
2022/04/18 09:10:25;;;;;;;10.30;6.75;;;;;;;12.19;60.33;102214.13;4898642;29;20029;-80
2022/04/18 09:12:51;;;;;;;11.27;7.13;;;;;;;12.30;60.22;102217.44;4880680;29;20024;-79
2022/04/18 09:15:39;;;;;;;13.20;7.35;;;;;;;12.42;61.05;102216.03;4919054;29;20028;-82
2022/04/18 09:18:11;;;;;;;9.63;7.10;;;;;;;12.52;60.99;102222.06;4933575;29;20083;-82
2022/04/18 09:20:57;;;;;;;11.50;7.15;;;;;;;12.36;61.21;102185.19;4925383;29;20016;-82
2022/04/18 09:23:34;;;;;;;9.60;6.55;;;;;;;12.51;61.03;102201.47;4909096;29;20072;-81
2022/04/18 09:26:01;;;;;;;8.90;6.60;;;;;;;12.55;62.19;102220.84;4903604;29;20112;-80
2022/04/18 09:28:32;;;;;;;11.48;6.88;;;;;;;12.40;61.43;102199.19;4903875;29;20108;-80
2022/04/18 09:31:11;;;;;;;9.57;6.88;;;;;;;12.52;60.75;102210.44;4921814;29;20020;-81
2022/04/18 09:33:46;;;;;;;9.80;7.22;;;;;;;12.55;60.10;102210.91;4924623;29;20027;-81
2022/04/18 09:36:15;;;;;;;9.88;7.15;;;;;;;12.33;59.48;102173.91;4908876;29;20041;-80
2022/04/18 09:38:48;;;;;;;11.40;6.88;;;;;;;12.42;59.63;102202.56;4900775;29;20081;-81
2022/04/18 09:41:32;;;;;;;11.52;7.25;;;;;;;12.19;59.67;102186.31;4901764;29;20069;-80
2022/04/18 09:43:59;;;;;;;10.63;7.27;;;;;;;12.12;60.29;102194.25;4903788;29;20040;-79
2022/04/18 09:46:25;;;;;;;11.38;7.10;;;;;;;11.99;62.11;102197.50;4899355;29;20107;-81
2022/04/18 09:48:52;;;;;;;12.82;8.30;;;;;;;11.79;61.89;102179.16;4883990;29;20028;-80
2022/04/18 09:51:29;;;;;;;12.45;7.65;;;;;;;11.81;62.24;102198.72;4898173;29;20028;-81
2022/04/18 09:53:58;;;;;;;13.98;7.53;;;;;;;11.73;62.27;102191.50;4903432;29;20034;-80
2022/04/18 09:56:26;;;;;;;13.50;7.63;;;;;;;11.63;61.86;102191.69;4890472;29;20036;-82
2022/04/18 09:58:53;;;;;;;14.70;8.00;;;;;;;11.54;61.11;102187.31;4922512;29;20056;-81
2022/04/18 10:01:19;;;;;;;14.10;8.02;;;;;;;11.48;60.79;102186.13;4898905;29;20072;-80
2022/04/18 10:03:46;;;;;;;12.77;7.38;;;;;;;11.56;62.28;102185.31;4898430;29;20052;-80
2022/04/18 10:06:12;;;;;;;12.27;7.57;;;;;;;11.40;62.93;102153.00;4897129;29;20115;-79
2022/04/18 10:08:38;;;;;;;10.35;7.65;;;;;;;11.72;64.03;102190.66;4894109;29;20196;-80
2022/04/18 10:11:07;;;;;;;12.70;7.68;;;;;;;11.77;64.22;102192.81;4901656;29;20077;-79
2022/04/18 10:13:34;;;;;;;12.38;7.65;;;;;;;11.72;64.24;102189.78;4899864;29;20466;-79
2022/04/18 10:16:00;;;;;;;15.25;8.20;;;;;;;11.55;64.49;102171.97;4864356;29;20068;-80
2022/04/18 10:18:26;;;;;;;12.95;8.43;;;;;;;11.58;64.02;102187.81;4879689;29;20132;-77
2022/04/18 10:21:06;;;;;;;14.85;9.35;;;;;;;11.59;65.57;102184.97;4899651;29;20360;-80
2022/04/18 10:23:56;;;;;;;11.90;8.05;;;;;;;11.77;65.74;102195.53;4898700;29;20017;-78
2022/04/18 10:27:06;;;;;;;10.23;7.55;;;;;;;11.85;66.63;102190.13;4898522;29;20013;-80
2022/04/18 10:29:39;;;;;;;10.27;7.35;;;;;;;11.72;68.05;102171.78;4899141;29;20036;-80
2022/04/18 10:32:07;;;;;;;12.68;7.93;;;;;;;11.70;64.91;102164.88;4921427;29;20447;-81
2022/04/18 10:34:34;;;;;;;10.55;7.18;;;;;;;11.88;65.68;102188.94;4918297;29;20020;-81
2022/04/18 10:37:02;;;;;;;12.32;7.53;;;;;;;11.89;65.54;102159.13;4900347;29;20064;-80
2022/04/18 10:39:35;;;;;;;11.38;7.68;;;;;;;11.97;67.93;102172.56;4901596;29;20052;-79
2022/04/18 10:42:20;;;;;;;12.27;9.00;;;;;;;11.95;71.28;102174.59;4897995;29;20550;-80
2022/04/18 10:44:57;;;;;;;;;;;;;;;11.86;73.19;102181.03;4908944;29;20025;-81
2022/04/18 10:47:22;;;;;;;14.30;9.25;;;;;;;11.71;74.33;102155.75;4880845;29;19918;-80
2022/04/18 10:50:18;;;;;;;13.27;9.32;;;;;;;11.89;73.88;102178.00;4881136;29;20167;-79
2022/04/18 10:53:09;;;;;;;12.02;8.80;;;;;;;11.47;72.45;102129.72;4893828;29;20366;-80
2022/04/18 10:55:36;;;;;;;13.38;9.00;;;;;;;11.77;72.21;102172.09;4896677;29;20025;-79
2022/04/18 10:58:21;;;;;;;13.77;9.00;;;;;;;11.80;70.79;102181.69;4899099;29;20033;-81
2022/04/18 11:00:52;;;;;;;13.57;8.63;;;;;;;11.78;69.98;102175.63;4894374;29;20052;-79
2022/04/18 11:03:37;;;;;;;13.77;8.07;;;;;;;11.82;69.24;102171.59;4872291;29;20364;-80
2022/04/18 11:06:10;;;;;;;13.98;8.77;;;;;;;11.72;70.36;102162.81;4903398;29;20076;-82
2022/04/18 11:08:37;;;;;;;14.43;8.70;;;;;;;11.78;71.68;102167.53;4899511;29;20128;-80
2022/04/18 11:11:04;;;;;;;14.50;8.27;;;;;;;11.77;71.44;102166.69;4910238;29;20028;-81
2022/04/18 11:13:33;;;;;;;11.52;7.97;;;;;;;11.68;71.21;102148.84;4902688;29;20102;-83
2022/04/18 11:16:23;;;;;;;13.38;8.90;;;;;;;11.70;71.95;102165.72;4001182;23;20028;-81
2022/04/18 11:19:07;;;;;;;12.48;8.60;;;;;;;11.65;72.60;102168.06;4923289;29;20053;-81
2022/04/18 11:24:58;;;;;;;11.25;8.90;;;;;;;11.59;75.15;102168.78;5100307;23;20064;-82
2022/04/18 11:27:26;;;;;;;14.50;9.55;;;;;;;10.70;77.01;102021.63;4922440;29;20041;-83
2022/04/18 11:29:58;;;;;;;11.55;9.05;;;;;;;11.18;77.13;102101.47;4917040;29;20434;-84
2022/04/18 11:32:28;;;;;;;11.52;9.18;;;;;;;11.61;78.28;102166.75;4919789;29;20028;-84
2022/04/18 11:34:56;;;;;;;11.55;8.70;;;;;;;10.97;76.46;102068.88;4917058;29;20347;-83
2022/04/18 11:40:10;;;;;;;11.65;8.63;;;;;;;11.34;76.05;102132.13;4863916;29;20053;-81
2022/04/18 11:42:37;;;;;;;11.45;8.40;;;;;;;11.43;75.50;102145.41;4869681;29;20052;-84